Hlavní strana
METAR-TAF:

METAR-TAF

Letiště :

Mitiga International Airport

Tripolis, Libye

zeměpisná šířka: 32-54N, zeměpisná délka: 13-17E, výška: 11 m

METAR: chybějící

Čas: 09:52 (07:52 UTC)

Předpověď počasí

Zpráva byla vytvořena před 14 hodinami a 52 minutami, v 17:00 UTC
Předpověď platná od 06 v 18 UTC do 07 v 18 UTC
Východní vítr 10 kt
Viditelnost 10 km a více
Žádná oblačnost pod 1500 m, nevyskytují se cumulonimby.
Změna
od 06 v 21 UTC do 06 v 23 UTC
vítr z různých směrů 2 kt
Viditelnost: 8000 m
Pravděpodobnost 30% :
Dočasný
od 07 v 02 UTC do 07 v 06 UTC
Viditelnost: 3000 m
kouřmo
Změna
od 07 v 06 UTC do 07 v 08 UTC
Východní vítr 10 kt

TAF: HLLM 061700Z 0618/0718 09010KT CAVOK BECMG 0621/0623 VRB02KT 8000 NSC PROB30 TEMPO 0702/0706 3000 BR BECMG 0706/0708 09010KT

Stav a předpovědi počasí z více než 4 000 letišť (zprávy METAR a TAF).

Červené a žluté tečky na mapě představují dostupné meteorologické stanice.

Když kurzor umístíte na tečku, zobrazí se název stanice.

Pak kliknutím zobrazíte stav a předpověď počasí.

Chcete-li změnit mapu, kliknutím na zelené tlačítko se znaménkem +mapu přiblížíte, kliknutím na zelené tlačítko se znaménkem – mapu oddálíte a kliknutím na zelené šipky přejdete na sousední mapy.


METAR-TAF: